createdAt,value
2023-03-24T00:01:02.856Z,99642.25
2023-03-24T00:03:31.543Z,99642.44
2023-03-24T00:06:01.905Z,99639.88
2023-03-24T00:08:31.601Z,99630.41
2023-03-24T00:11:04.134Z,99623.75
2023-03-24T00:13:37.976Z,99616.44
2023-03-24T00:16:06.169Z,99621.88
2023-03-24T00:18:33.998Z,99621.03
2023-03-24T00:21:02.138Z,99608.94
2023-03-24T00:23:32.510Z,99613.06
2023-03-24T00:26:03.630Z,99603.03
2023-03-24T00:28:33.309Z,99598.59
2023-03-24T00:31:02.084Z,99586.03
2023-03-24T00:33:32.847Z,99595.53
2023-03-24T00:36:01.262Z,99596.75
2023-03-24T00:38:29.462Z,99581.75
2023-03-24T00:40:57.236Z,99587.69
2023-03-24T00:43:26.645Z,99581.41
2023-03-24T00:46:01.890Z,99578.84
2023-03-24T00:48:31.002Z,99580.19
2023-03-24T00:50:59.175Z,99578.50
2023-03-24T00:53:29.630Z,99569.13
2023-03-24T00:55:58.492Z,99574.56
2023-03-24T00:58:29.967Z,99579.81
2023-03-24T01:00:58.976Z,99567.22
2023-03-24T01:03:28.134Z,99564.66
2023-03-24T01:05:57.814Z,99565.84
2023-03-24T01:08:25.985Z,99558.91
2023-03-24T01:10:54.341Z,99549.06
2023-03-24T01:13:24.199Z,99541.72
2023-03-24T01:15:53.746Z,99554.69
2023-03-24T01:18:23.694Z,99545.97
2023-03-24T01:20:51.882Z,99546.81
2023-03-24T01:23:23.526Z,99540.34
2023-03-24T01:25:52.012Z,99544.94
2023-03-24T01:28:24.712Z,99538.66
2023-03-24T01:30:54.840Z,99548.50
2023-03-24T01:33:23.025Z,99528.59
2023-03-24T01:35:51.213Z,99533.22
2023-03-24T01:38:19.128Z,99546.63
2023-03-24T01:40:48.212Z,99545.22
2023-03-24T01:43:20.387Z,99547.66
2023-03-24T01:46:14.493Z,99538.94
2023-03-24T01:48:46.255Z,99542.97
2023-03-24T01:51:17.416Z,99551.53
2023-03-24T01:53:47.988Z,99590.28
2023-03-24T01:56:15.984Z,99584.91
2023-03-24T01:58:49.013Z,99604.59
2023-03-24T02:01:19.222Z,99602.59
2023-03-24T02:03:47.657Z,99609.91
2023-03-24T02:06:16.487Z,99600.25
2023-03-24T02:08:49.887Z,99602.72
2023-03-24T02:11:17.774Z,99615.34
2023-03-24T02:13:45.633Z,99611.09
2023-03-24T02:16:45.912Z,99630.47
2023-03-24T02:19:44.819Z,99628.13
2023-03-24T02:22:53.798Z,99653.13
2023-03-24T02:26:15.422Z,99665.59
2023-03-24T02:28:53.203Z,99668.97
2023-03-24T02:31:39.613Z,99674.41
2023-03-24T02:34:43.831Z,99669.19
2023-03-24T02:37:42.921Z,99671.94
2023-03-24T02:40:27.398Z,99673.28
2023-03-24T02:43:08.397Z,99672.09
2023-03-24T02:45:40.847Z,99679.63
2023-03-24T02:48:22.646Z,99685.06
2023-03-24T02:50:55.786Z,99709.53
2023-03-24T02:53:32.479Z,99716.50
2023-03-24T02:56:11.749Z,99726.00
2023-03-24T02:58:43.440Z,99717.88
2023-03-24T03:01:16.075Z,99709.88
2023-03-24T03:03:49.198Z,99712.06
2023-03-24T03:06:21.773Z,99710.69
2023-03-24T03:08:51.279Z,99724.13
2023-03-24T03:11:20.549Z,99740.59
2023-03-24T03:13:52.268Z,99745.00
2023-03-24T03:16:25.427Z,99742.59
2023-03-24T03:18:58.856Z,99750.75
2023-03-24T03:21:30.225Z,99744.47
2023-03-24T03:24:02.169Z,99760.25
2023-03-24T03:26:34.200Z,99764.28
2023-03-24T03:29:06.539Z,99768.19
2023-03-24T03:31:41.856Z,99757.16
2023-03-24T03:34:16.937Z,99762.06
2023-03-24T03:36:51.130Z,99775.59
2023-03-24T03:39:26.018Z,99781.19
2023-03-24T03:41:56.768Z,99767.44
2023-03-24T03:44:25.208Z,99775.44
2023-03-24T03:46:53.885Z,99780.00
2023-03-24T03:49:21.970Z,99788.13
2023-03-24T03:51:51.303Z,99787.63
2023-03-24T03:54:19.679Z,99786.94
2023-03-24T03:56:49.959Z,99799.13
2023-03-24T03:59:30.955Z,99793.88
2023-03-24T04:01:58.831Z,99781.81
2023-03-24T04:05:06.428Z,99790.47
2023-03-24T04:07:42.199Z,99798.94
2023-03-24T04:10:17.727Z,99800.66
2023-03-24T04:13:05.239Z,99805.19
2023-03-24T04:15:46.824Z,99808.25
2023-03-24T04:18:44.206Z,99812.09
2023-03-24T04:21:42.276Z,99836.69
2023-03-24T04:24:27.473Z,99833.31
2023-03-24T04:27:00.581Z,99837.16
2023-03-24T04:29:36.993Z,99824.78
2023-03-24T04:32:19.525Z,99831.38
2023-03-24T04:34:54.295Z,99826.13
2023-03-24T04:37:25.729Z,99828.31
2023-03-24T04:39:58.883Z,99839.31
2023-03-24T04:42:32.701Z,99844.75
2023-03-24T04:45:03.854Z,99847.63
2023-03-24T04:47:38.583Z,99845.41
2023-03-24T04:50:11.383Z,99851.34
2023-03-24T04:52:39.491Z,99848.09
2023-03-24T04:55:32.235Z,99859.94
2023-03-24T04:58:00.158Z,99859.59
2023-03-24T05:00:28.408Z,99860.78
2023-03-24T05:02:57.561Z,99851.47
2023-03-24T05:05:25.324Z,99880.41
2023-03-24T05:07:53.504Z,99875.50
2023-03-24T05:10:22.151Z,99876.38
2023-03-24T05:12:50.322Z,99887.38
2023-03-24T05:15:18.180Z,99881.41
2023-03-24T05:17:46.022Z,99882.97
2023-03-24T05:20:15.621Z,99885.00
2023-03-24T05:22:43.368Z,99897.53
2023-03-24T05:25:11.263Z,99899.25
2023-03-24T05:27:39.291Z,99899.53
2023-03-24T05:30:08.421Z,99905.78
2023-03-24T05:32:36.490Z,99911.91
2023-03-24T05:35:04.995Z,99904.66
2023-03-24T05:37:34.218Z,99902.63
2023-03-24T05:40:02.015Z,99919.59
2023-03-24T05:42:29.827Z,99910.59
2023-03-24T05:44:57.571Z,99913.00
2023-03-24T05:47:25.567Z,99915.53
2023-03-24T05:49:53.362Z,99911.81
2023-03-24T05:52:22.515Z,99912.53
2023-03-24T05:54:52.265Z,99920.66
2023-03-24T05:57:21.585Z,99931.50
2023-03-24T05:59:49.312Z,99936.59
2023-03-24T06:02:17.057Z,99931.69
2023-03-24T06:04:46.317Z,99935.41
2023-03-24T06:07:14.431Z,99938.81
2023-03-24T06:09:46.839Z,99936.28
2023-03-24T06:12:16.741Z,99933.56
2023-03-24T06:14:45.545Z,99936.28
2023-03-24T06:17:15.436Z,99938.66
2023-03-24T06:19:49.898Z,99937.66
2023-03-24T06:22:18.124Z,99951.03
2023-03-24T06:24:47.052Z,99947.19
2023-03-24T06:27:16.142Z,99959.03
2023-03-24T06:29:43.907Z,99961.41
2023-03-24T06:32:12.098Z,99950.75
2023-03-24T06:34:40.520Z,99961.75
2023-03-24T06:37:08.799Z,99961.28
2023-03-24T06:39:36.559Z,99969.78
2023-03-24T06:42:04.842Z,99973.34
2023-03-24T06:44:34.012Z,99984.03
2023-03-24T06:47:01.719Z,99971.50
2023-03-24T06:49:29.535Z,99992.00
2023-03-24T06:51:57.280Z,99987.13
2023-03-24T06:54:25.014Z,99990.38
2023-03-24T06:56:52.916Z,99994.75
2023-03-24T06:59:23.858Z,99990.03
2023-03-24T07:01:54.262Z,99991.91
2023-03-24T07:04:25.639Z,99995.63
2023-03-24T07:07:08.531Z,99988.50
2023-03-24T07:09:41.239Z,99999.88
2023-03-24T07:12:09.042Z,100000.41
2023-03-24T07:14:36.839Z,100019.78
2023-03-24T07:17:06.413Z,100007.06
2023-03-24T07:19:34.136Z,100016.75
2023-03-24T07:22:01.888Z,100017.44
2023-03-24T07:24:31.714Z,100018.13
2023-03-24T07:26:59.687Z,100021.38
2023-03-24T07:29:27.479Z,100024.91
2023-03-24T07:31:58.770Z,100027.00
2023-03-24T07:34:28.278Z,100026.22
2023-03-24T07:36:56.898Z,100032.84
2023-03-24T07:39:24.680Z,100029.13
2023-03-24T07:41:52.797Z,100035.06
2023-03-24T07:44:20.895Z,100041.91
2023-03-24T07:46:48.627Z,100034.00
2023-03-24T07:49:19.693Z,100040.50
2023-03-24T07:51:49.295Z,100039.63
2023-03-24T07:54:17.044Z,100042.72
2023-03-24T07:56:45.025Z,100051.56
2023-03-24T07:59:12.829Z,100046.66
2023-03-24T08:01:40.671Z,100052.28
2023-03-24T08:04:08.536Z,100045.50
2023-03-24T08:06:36.326Z,100054.00
2023-03-24T08:09:05.510Z,100064.56
2023-03-24T08:11:33.877Z,100059.16
2023-03-24T08:14:01.655Z,100062.94
2023-03-24T08:16:29.498Z,100069.25
2023-03-24T08:18:58.261Z,100070.44
2023-03-24T08:21:26.611Z,100061.28
2023-03-24T08:23:54.407Z,100071.00
2023-03-24T08:26:26.834Z,100072.19
2023-03-24T08:28:54.656Z,100076.28
2023-03-24T08:31:22.454Z,100076.28
2023-03-24T08:33:50.355Z,100091.06
2023-03-24T08:36:18.116Z,100091.56
2023-03-24T08:38:48.154Z,100089.66
2023-03-24T08:41:16.854Z,100097.34
2023-03-24T08:43:46.236Z,100091.91
2023-03-24T08:46:15.316Z,100094.13
2023-03-24T08:48:43.918Z,100117.94
2023-03-24T08:51:13.530Z,100107.38
2023-03-24T08:53:41.712Z,100111.28
2023-03-24T08:56:09.816Z,100120.47
2023-03-24T08:58:37.774Z,100120.66
2023-03-24T09:01:07.590Z,100122.88
2023-03-24T09:03:35.998Z,100132.25
2023-03-24T09:06:03.733Z,100124.06
2023-03-24T09:08:31.700Z,100144.50
2023-03-24T09:10:59.546Z,100135.66
2023-03-24T09:13:27.293Z,100140.41
2023-03-24T09:16:00.132Z,100144.28
2023-03-24T09:18:29.556Z,100143.09
2023-03-24T09:20:57.393Z,100136.44
2023-03-24T09:23:25.261Z,100134.00
2023-03-24T09:25:54.436Z,100141.59
2023-03-24T09:28:22.555Z,100138.31
2023-03-24T09:30:50.750Z,100130.34
2023-03-24T09:33:18.834Z,100142.59
2023-03-24T09:35:55.685Z,100138.53
2023-03-24T09:38:25.357Z,100145.88
2023-03-24T09:40:57.820Z,100148.41
2023-03-24T09:43:39.537Z,100158.47
2023-03-24T09:46:15.333Z,100154.75
2023-03-24T09:48:48.346Z,100152.16
2023-03-24T09:51:23.216Z,100147.69
2023-03-24T09:53:59.268Z,100153.78
2023-03-24T09:56:29.652Z,100150.06
2023-03-24T09:59:04.987Z,100148.56
2023-03-24T10:01:33.086Z,100156.78
2023-03-24T10:04:01.500Z,100154.09
2023-03-24T10:06:34.237Z,100158.41
2023-03-24T10:09:16.970Z,100152.31
2023-03-24T10:11:52.948Z,100157.41
2023-03-24T10:14:36.210Z,100159.19
2023-03-24T10:17:13.182Z,100147.34
2023-03-24T10:19:49.621Z,100160.69
2023-03-24T10:22:23.383Z,100158.31
2023-03-24T10:24:54.934Z,100158.91
2023-03-24T10:27:29.941Z,100156.56
2023-03-24T10:30:04.732Z,100160.88
2023-03-24T10:32:36.660Z,100163.31
2023-03-24T10:35:10.069Z,100159.31
2023-03-24T10:37:39.340Z,100161.22
2023-03-24T10:40:16.289Z,100158.47
2023-03-24T10:42:46.242Z,100161.41
2023-03-24T10:45:17.153Z,100157.16
2023-03-24T10:47:45.507Z,100163.34
2023-03-24T10:50:15.504Z,100149.50
2023-03-24T10:52:48.845Z,100153.28
2023-03-24T10:55:19.629Z,100165.41
2023-03-24T10:57:50.772Z,100160.72
2023-03-24T11:00:24.608Z,100160.19
2023-03-24T11:02:58.803Z,100161.22
2023-03-24T11:05:31.736Z,100160.13
2023-03-24T11:08:14.540Z,100159.56
2023-03-24T11:10:42.510Z,100158.06
2023-03-24T11:13:19.169Z,100153.78
2023-03-24T11:15:56.730Z,100166.69
2023-03-24T11:18:24.503Z,100157.41
2023-03-24T11:20:57.656Z,100163.78
2023-03-24T11:23:31.300Z,100159.72
2023-03-24T11:26:15.856Z,100170.81
2023-03-24T11:28:48.036Z,100167.25
2023-03-24T11:31:24.481Z,100163.66
2023-03-24T11:33:58.506Z,100168.28
2023-03-24T11:36:51.966Z,100166.56
2023-03-24T11:39:24.203Z,100178.22
2023-03-24T11:42:01.710Z,100177.25
2023-03-24T11:44:32.545Z,100174.22
2023-03-24T11:47:04.299Z,100162.91
2023-03-24T11:49:34.081Z,100176.69
2023-03-24T11:52:03.502Z,100172.72
2023-03-24T11:54:36.873Z,100171.66
2023-03-24T11:57:09.008Z,100167.56
2023-03-24T11:59:43.257Z,100167.16
2023-03-24T12:02:22.098Z,100160.97
2023-03-24T12:05:04.908Z,100152.44
2023-03-24T12:07:50.568Z,100151.06
2023-03-24T12:10:32.101Z,100153.06
2023-03-24T12:13:09.215Z,100140.31
2023-03-24T12:15:52.057Z,100152.38
2023-03-24T12:18:37.636Z,100164.38
2023-03-24T12:21:17.866Z,100161.59
2023-03-24T12:23:55.648Z,100159.19
2023-03-24T12:26:27.808Z,100158.56
2023-03-24T12:29:05.921Z,100156.56
2023-03-24T12:31:57.258Z,100151.06
2023-03-24T12:35:01.838Z,100161.63
2023-03-24T12:37:38.505Z,100160.59
2023-03-24T12:40:49.484Z,100164.44
2023-03-24T12:43:28.935Z,100151.13
2023-03-24T12:45:59.633Z,100154.09
2023-03-24T12:49:02.699Z,100148.88
2023-03-24T12:51:38.854Z,100159.25
2023-03-24T12:54:19.839Z,100159.28
2023-03-24T12:56:53.081Z,100155.03
2023-03-24T12:59:30.338Z,100147.84
2023-03-24T13:02:10.378Z,100148.81
2023-03-24T13:04:42.136Z,100153.38
2023-03-24T13:07:14.601Z,100152.31
2023-03-24T13:09:53.125Z,100154.16
2023-03-24T13:12:23.476Z,100152.31
2023-03-24T13:15:03.359Z,100143.25
2023-03-24T13:17:35.773Z,100149.75
2023-03-24T13:20:08.245Z,100147.19
2023-03-24T13:22:39.384Z,100149.28
2023-03-24T13:25:21.207Z,100149.31
2023-03-24T13:27:54.853Z,100153.41
2023-03-24T13:30:32.984Z,100155.66
2023-03-24T13:33:04.970Z,100157.41
2023-03-24T13:35:51.636Z,100154.31
2023-03-24T13:38:27.932Z,100167.00
2023-03-24T13:40:57.539Z,100158.84
2023-03-24T13:43:33.077Z,100156.63
2023-03-24T13:46:03.766Z,100162.72
2023-03-24T13:48:37.627Z,100164.41
2023-03-24T13:51:06.388Z,100153.16
2023-03-24T13:53:39.384Z,100159.75
2023-03-24T13:56:10.038Z,100150.56
2023-03-24T13:59:06.633Z,100148.84
2023-03-24T14:01:38.747Z,100152.97
2023-03-24T14:04:23.318Z,100138.66
2023-03-24T14:06:52.159Z,100130.47
2023-03-24T14:09:22.727Z,100136.06
2023-03-24T14:12:09.344Z,100114.91
2023-03-24T14:14:38.050Z,100127.00
2023-03-24T14:17:16.528Z,100123.91
2023-03-24T14:19:45.382Z,100120.31
2023-03-24T14:22:16.264Z,100123.63
2023-03-24T14:24:46.498Z,100102.66
2023-03-24T14:27:35.889Z,100119.75
2023-03-24T14:30:07.559Z,100121.22
2023-03-24T14:32:41.770Z,100112.97
2023-03-24T14:35:24.179Z,100109.06
2023-03-24T14:37:55.354Z,100104.09
2023-03-24T14:40:29.763Z,100109.38
2023-03-24T14:43:06.145Z,100104.91
2023-03-24T14:45:42.980Z,100105.56
2023-03-24T14:48:26.616Z,100108.84
2023-03-24T14:50:55.341Z,100097.13
2023-03-24T14:53:24.689Z,100106.19
2023-03-24T14:55:54.982Z,100114.19
2023-03-24T14:58:26.729Z,100105.84
2023-03-24T15:01:07.204Z,100099.84
2023-03-24T15:03:45.972Z,100093.50
2023-03-24T15:06:15.824Z,100100.16
2023-03-24T15:08:47.536Z,100099.00
2023-03-24T15:11:18.160Z,100082.88
2023-03-24T15:13:49.185Z,100087.16
2023-03-24T15:16:20.537Z,100094.31
2023-03-24T15:19:00.640Z,100099.03
2023-03-24T15:21:33.987Z,100089.66
2023-03-24T15:24:02.481Z,100088.13
2023-03-24T15:26:32.478Z,100093.47
2023-03-24T15:29:02.670Z,100084.41
2023-03-24T15:31:33.818Z,100091.75
2023-03-24T15:34:08.935Z,100090.56
2023-03-24T15:36:45.677Z,100085.78
2023-03-24T15:39:20.938Z,100093.59
2023-03-24T15:41:52.932Z,100087.16
2023-03-24T15:44:22.688Z,100091.94
2023-03-24T15:46:50.854Z,100076.25
2023-03-24T15:49:25.560Z,100072.50
2023-03-24T15:51:57.053Z,100077.59
2023-03-24T15:54:27.466Z,100078.25
2023-03-24T15:57:03.763Z,100078.63
2023-03-24T15:59:37.026Z,100062.97
2023-03-24T16:02:12.735Z,100077.84
2023-03-24T16:04:42.771Z,100108.19
2023-03-24T16:07:29.531Z,100099.56
2023-03-24T16:10:04.443Z,100094.16
2023-03-24T16:12:34.722Z,100088.97
2023-03-24T16:15:04.920Z,100084.22
2023-03-24T16:17:32.868Z,100087.66
2023-03-24T16:20:02.005Z,100085.13
2023-03-24T16:22:29.762Z,100074.22
2023-03-24T16:24:57.605Z,100072.16
2023-03-24T16:27:25.514Z,100062.81
2023-03-24T16:29:53.619Z,100066.19
2023-03-24T16:32:21.501Z,100064.34
2023-03-24T16:34:49.295Z,100062.81
2023-03-24T16:37:18.758Z,100064.00
2023-03-24T16:39:46.539Z,100060.25
2023-03-24T16:42:14.990Z,100060.75
2023-03-24T16:44:42.909Z,100075.44
2023-03-24T16:47:11.977Z,100076.63
2023-03-24T16:49:39.715Z,100080.00
2023-03-24T16:52:12.368Z,100080.50
2023-03-24T16:54:41.792Z,100082.91
2023-03-24T16:57:09.702Z,100076.63
2023-03-24T16:59:37.499Z,100080.00
2023-03-24T17:02:05.937Z,100079.34
2023-03-24T17:04:35.383Z,100075.94
2023-03-24T17:07:03.273Z,100078.47
2023-03-24T17:09:32.257Z,100069.81
2023-03-24T17:12:02.320Z,100068.06
2023-03-24T17:14:31.077Z,100090.72
2023-03-24T17:17:02.892Z,100086.47
2023-03-24T17:19:33.095Z,100072.16
2023-03-24T17:22:02.821Z,100070.97
2023-03-24T17:24:35.688Z,100067.94
2023-03-24T17:27:11.108Z,100069.81
2023-03-24T17:29:38.880Z,100066.38
2023-03-24T17:32:07.000Z,100076.13
2023-03-24T17:34:34.935Z,100078.66
2023-03-24T17:37:03.016Z,100068.78
2023-03-24T17:39:31.032Z,100066.22
2023-03-24T17:42:01.364Z,100068.94
2023-03-24T17:44:30.702Z,100074.53
2023-03-24T17:46:58.589Z,100062.81
2023-03-24T17:49:26.464Z,100065.03
2023-03-24T17:51:54.261Z,100058.56
2023-03-24T17:54:22.358Z,100071.34
2023-03-24T17:56:50.130Z,100083.75
2023-03-24T17:59:17.966Z,100081.16
2023-03-24T18:01:47.235Z,100072.00
2023-03-24T18:04:15.054Z,100072.00
2023-03-24T18:06:43.046Z,100074.88
2023-03-24T18:09:11.141Z,100080.50
2023-03-24T18:11:39.219Z,100079.31
2023-03-24T18:14:09.275Z,100076.44
2023-03-24T18:16:39.294Z,100091.25
2023-03-24T18:19:08.567Z,100089.72
2023-03-24T18:21:36.538Z,100087.16
2023-03-24T18:24:05.103Z,100081.38
2023-03-24T18:26:33.603Z,100083.72
2023-03-24T18:29:01.498Z,100088.81
2023-03-24T18:31:32.384Z,100087.63
2023-03-24T18:34:01.234Z,100086.78
2023-03-24T18:36:31.142Z,100077.44
2023-03-24T18:39:00.843Z,100086.91
2023-03-24T18:41:30.402Z,100090.13
2023-03-24T18:44:00.139Z,100080.78
2023-03-24T18:46:28.461Z,100074.84
2023-03-24T18:48:56.772Z,100077.22
2023-03-24T18:51:26.259Z,100076.34
2023-03-24T18:53:55.421Z,100082.25
2023-03-24T18:56:25.491Z,100076.66
2023-03-24T18:58:53.593Z,100081.91
2023-03-24T19:01:26.463Z,100074.78
2023-03-24T19:03:54.589Z,100081.41
2023-03-24T19:06:26.200Z,100067.97
2023-03-24T19:08:55.460Z,100064.91
2023-03-24T19:11:23.348Z,100060.66
2023-03-24T19:13:51.836Z,100066.59
2023-03-24T19:16:21.140Z,100061.63
2023-03-24T19:18:50.585Z,100061.28
2023-03-24T19:21:18.813Z,100066.72
2023-03-24T19:23:47.038Z,100059.75
2023-03-24T19:26:17.079Z,100065.72
2023-03-24T19:28:45.913Z,100064.31
2023-03-24T19:31:17.487Z,100058.03
2023-03-24T19:33:46.029Z,100057.53
2023-03-24T19:36:15.365Z,100060.41
2023-03-24T19:38:43.231Z,100056.47
2023-03-24T19:41:12.706Z,100059.19
2023-03-24T19:43:42.161Z,100058.66
2023-03-24T19:46:10.486Z,100058.47
2023-03-24T19:48:38.694Z,100057.97
2023-03-24T19:51:07.057Z,100054.22
2023-03-24T19:53:34.994Z,100048.13
2023-03-24T19:56:03.346Z,100041.97
2023-03-24T19:58:31.704Z,100041.97
2023-03-24T20:01:00.871Z,100038.56
2023-03-24T20:03:29.025Z,100043.84
2023-03-24T20:05:56.974Z,100043.16
2023-03-24T20:08:26.008Z,100038.72
2023-03-24T20:10:53.901Z,100035.31
2023-03-24T20:13:23.969Z,100038.19
2023-03-24T20:15:52.230Z,100036.34
2023-03-24T20:18:21.804Z,100032.78
2023-03-24T20:20:49.620Z,100033.63
2023-03-24T20:23:17.406Z,100034.13
2023-03-24T20:25:45.364Z,100041.25
2023-03-24T20:28:13.179Z,100039.84
2023-03-24T20:30:42.768Z,100036.47
2023-03-24T20:33:10.595Z,100032.19
2023-03-24T20:35:40.747Z,100041.38
2023-03-24T20:38:08.600Z,100041.50
2023-03-24T20:40:36.409Z,100045.22
2023-03-24T20:43:04.238Z,100029.66
2023-03-24T20:45:32.084Z,100028.13
2023-03-24T20:47:59.914Z,100039.81
2023-03-24T20:50:27.835Z,100044.56
2023-03-24T20:52:56.960Z,100042.53
2023-03-24T20:55:24.739Z,100048.28
2023-03-24T20:57:53.787Z,100040.44
2023-03-24T21:00:21.823Z,100037.75
2023-03-24T21:02:49.745Z,100048.28
2023-03-24T21:05:17.720Z,100050.63
2023-03-24T21:07:45.594Z,100047.06
2023-03-24T21:10:15.705Z,100041.31
2023-03-24T21:12:53.594Z,100041.25
2023-03-24T21:15:23.160Z,100042.13
2023-03-24T21:17:51.293Z,100044.84
2023-03-24T21:20:19.263Z,100030.41
2023-03-24T21:22:55.000Z,100037.31
2023-03-24T21:25:26.173Z,100036.66
2023-03-24T21:27:54.072Z,100039.34
2023-03-24T21:30:21.841Z,100037.28
2023-03-24T21:32:50.966Z,100041.31
2023-03-24T21:35:20.043Z,100047.78
2023-03-24T21:37:49.036Z,100046.53
2023-03-24T21:40:18.646Z,100047.69
2023-03-24T21:42:49.702Z,100040.88
2023-03-24T21:45:19.368Z,100053.13
2023-03-24T21:47:48.627Z,100045.00
2023-03-24T21:50:22.746Z,100046.00
2023-03-24T21:52:51.355Z,100042.03
2023-03-24T21:55:20.466Z,100042.75
2023-03-24T21:57:51.939Z,100045.53
2023-03-24T22:00:22.837Z,100041.66
2023-03-24T22:02:52.426Z,100044.34
2023-03-24T22:05:22.483Z,100048.44
2023-03-24T22:07:51.288Z,100042.72
2023-03-24T22:10:22.849Z,100045.91
2023-03-24T22:12:52.992Z,100052.16
2023-03-24T22:15:21.746Z,100063.00
2023-03-24T22:17:49.771Z,100056.75
2023-03-24T22:20:18.256Z,100055.22
2023-03-24T22:22:46.588Z,100067.38
2023-03-24T22:25:16.233Z,100058.09
2023-03-24T22:27:44.053Z,100062.66
2023-03-24T22:30:15.009Z,100062.66
2023-03-24T22:32:43.239Z,100062.97
2023-03-24T22:35:11.296Z,100048.53
2023-03-24T22:37:39.139Z,100053.97
2023-03-24T22:40:09.241Z,100047.16
2023-03-24T22:42:37.053Z,100038.69
2023-03-24T22:45:05.334Z,100058.56
2023-03-24T22:47:35.072Z,100047.63
2023-03-24T22:50:02.858Z,100048.47
2023-03-24T22:52:30.772Z,100051.34
2023-03-24T22:55:01.830Z,100039.13
2023-03-24T22:57:29.557Z,100043.69
2023-03-24T23:00:01.677Z,100038.75
2023-03-24T23:02:29.698Z,100057.03
2023-03-24T23:04:59.120Z,100047.19
2023-03-24T23:07:28.134Z,100054.50
2023-03-24T23:09:59.270Z,100050.91
2023-03-24T23:12:27.647Z,100058.38
2023-03-24T23:14:56.090Z,100049.69
2023-03-24T23:17:25.323Z,100058.81
2023-03-24T23:19:53.643Z,100066.09
2023-03-24T23:22:23.566Z,100059.28
2023-03-24T23:25:01.106Z,100062.84
2023-03-24T23:27:34.810Z,100058.28
2023-03-24T23:30:02.727Z,100062.31
2023-03-24T23:32:33.563Z,100059.06
2023-03-24T23:35:02.916Z,100065.16
2023-03-24T23:37:33.574Z,100055.50
2023-03-24T23:40:08.232Z,100066.97
2023-03-24T23:42:36.715Z,100064.09
2023-03-24T23:45:04.982Z,100072.38
2023-03-24T23:47:34.466Z,100066.25
2023-03-24T23:50:02.766Z,100076.81
2023-03-24T23:52:31.897Z,100079.50
2023-03-24T23:54:59.651Z,100068.97
2023-03-24T23:57:27.395Z,100062.88
2023-03-24T23:59:55.233Z,100072.38
